Nearby METAR (Airport) Reports

 

KPRN - Greenville, Alabama, USA
Distance from station: WNW 17mi, 28km
Updated: Wed, 24-Apr-2019 4:56pm CDT
Clear
Clear
 Wind from SSW
Wind: SSW 9 mph , 15 km/h
Temperature: 79°F , 26°C
Dew Point: 57°F , 14°C
Humidity: 48%
Barometer: 29.96 inHg , 1014.6 hPa
Clouds: Clear
Visibility: 10 miles , 16 km
2019/04/24 21:56 KPRN 242156Z AUTO 20008KT 10SM CLR 26/14 A2996 RMK AO2 SLP141 T02610139
KTOI - Troy, Alabama, USA
Distance from station: ENE 21mi, 34km
Updated: Wed, 24-Apr-2019 4:53pm CDT
Clear
Clear
 Wind from SW
Wind: SW 8 mph , 13 km/h
Temperature: 79°F , 26°C
Dew Point: 57°F , 14°C
Humidity: 48%
Barometer: 29.98 inHg , 1015.2 hPa
Clouds: Clear
Visibility: 10 miles , 16 km
2019/04/24 21:53 KTOI 242153Z AUTO 23007KT 10SM CLR 26/14 A2998 RMK AO2 SLP146 T02610144
K79J - Andalusia/Opp Ar, Alabama, USA
Distance from station: S 29mi, 47km
Updated: Wed, 24-Apr-2019 4:56pm CDT
Clear
Clear
 Wind from varies
Wind: varies 5 mph , 7 km/h
Temperature: 79°F , 26°C
Dew Point: 59°F , 15°C
Humidity: 51%
Barometer: 29.98 inHg , 1015.2 hPa
Clouds: Clear
Visibility: 10 miles , 16 km
2019/04/24 21:56 K79J 242156Z AUTO VRB04KT 10SM CLR 26/15 A2998 RMK AO2 SLP148 T02610150
 
KMGM - Montgomery, Alabama, USA
Distance from station: N 39mi, 63km
Updated: Wed, 24-Apr-2019 4:53pm CDT
Clear
Clear
 Wind from SW
Wind: SW 12 mph , 19 km/h
Temperature: 82°F , 28°C
Heat Index: 82°F , 28°C
Dew Point: 61°F , 16°C
Humidity: 48%
Barometer: 29.95 inHg , 1014.2 hPa
Clouds: Clear
Visibility: 10 miles , 16 km
2019/04/24 21:53 KMGM 242153Z 22010KT 10SM CLR 28/16 A2995 RMK AO2 SLP139 T02780161
KMXF - Maxwell Afb/Mgm, Alabama, USA
Distance from station: N 44mi, 70km
Updated: Wed, 24-Apr-2019 3:56pm CDT
NOT Current
Few Clouds
Few Clouds
 Wind from SW
Wind: SW 7 mph , 11 km/h
Temperature: 81°F , 27°C
Heat Index: 82°F , 28°C
Dew Point: 61°F , 16°C
Humidity: 51%
Barometer: 29.94 inHg , 1013.9 hPa
Clouds: Few Clouds
Visibility: 10 miles , 16 km
Cloud details: Few Clouds 19000 ft
2019/04/24 20:56 KMXF 242056Z AUTO 22006KT 10SM FEW190 27/16 A2994 RMK AO2 SLP140 T02700157 57019
KLOR - Lowe Ahp/Ft. Ruc, Alabama, USA
Distance from station: SE 44mi, 71km
Updated: Wed, 24-Apr-2019 4:58pm CDT
Overcast
Overcast
 Wind from S
Wind: S 12 mph , 19 km/h
Temperature: 77°F , 25°C
Dew Point: 59°F , 15°C
Humidity: 54%
Barometer: 29.98 inHg , 1015.2 hPa
Clouds: Overcast
Visibility: 9 miles , 14 km
Cloud details: Overcast 17000 ft
2019/04/24 21:58 KLOR 242158Z AUTO 18010KT 9SM OVC170 25/15 A2998 RMK AO2 SLP134 T02470150
 
KGZH - Evergreen, Alabama, USA
Distance from station: WSW 46mi, 75km
Updated: Wed, 24-Apr-2019 4:53pm CDT
Clear
Clear
 Wind from SSW
Wind: SSW 9 mph , 15 km/h
Temperature: 79°F , 26°C
Dew Point: 61°F , 16°C
Humidity: 54%
Barometer: 29.96 inHg , 1014.6 hPa
Clouds: Clear
Visibility: 10 miles , 16 km
2019/04/24 21:53 KGZH 242153Z AUTO 20008KT 10SM CLR 26/16 A2996 RMK AO2 SLP143 T02610161 $
K0J4 - Florala Muni, Alabama, USA
Distance from station: S 47mi, 76km
Updated: Wed, 24-Apr-2019 4:58pm CDT
Clear
Clear
 Wind from SSW
Wind: SSW 12 mph , 19 km/h
Temperature: 75°F , 24°C
Dew Point: 55°F , 13°C
Humidity: 50%
Barometer: 30.01 inHg , 1016.3 hPa
Clouds: Clear
Visibility: 10 miles , 16 km
2019/04/24 21:58 K0J4 242158Z AUTO 20010KT 10SM CLR 24/13 A3001 RMK AO2 SLP158 T02390128
KOZR - Ozark/Cairns Aaf, Alabama, USA
Distance from station: SE 49mi, 78km
Updated: Wed, 24-Apr-2019 4:56pm CDT
Mostly cloudy
Mostly cloudy
 Wind from S
Wind: S 12 mph , 19 km/h
Temperature: 77°F , 25°C
Dew Point: 59°F , 15°C
Humidity: 54%
Barometer: 29.99 inHg , 1015.6 hPa
Clouds: Mostly cloudy
Visibility: 10 miles , 16 km
Cloud details: Mostly cloudy 18000 ft
2019/04/24 21:56 KOZR 242156Z AUTO 17010KT 10SM BKN180 25/15 A2999 RMK AO2 SLP156 T02460149
 
KHEY - Ft Rucker/Hanche, Alabama, USA
Distance from station: ESE 49mi, 79km
Updated: Wed, 24-Apr-2019 3:58pm CDT
NOT Current
Few Clouds
Few Clouds
 Wind from SW
Wind: SW 7 mph , 11 km/h
Temperature: 79°F , 26°C
Dew Point: 55°F , 13°C
Humidity: 45%
Barometer: 29.98 inHg , 1015.2 hPa
Clouds: Few Clouds
Visibility: 10 miles , 16 km
Cloud details: Few Clouds 19000 ft
2019/04/24 20:58 KHEY 242058Z AUTO 23006KT 10SM FEW190 26/13 A2998 RMK AO2 SLP152 T02570131 56019
KDHN - Dothan, Alabama, USA
Distance from station: ESE 61mi, 97km
Updated: Wed, 24-Apr-2019 4:53pm CDT
Clear
Clear
 Wind from SSW
Wind: SSW 12 mph , 19 km/h
Temperature: 77°F , 25°C
Dew Point: 54°F , 12°C
Humidity: 44%
Barometer: 30.02 inHg , 1016.6 hPa
Clouds: Clear
Visibility: 10 miles , 16 km
2019/04/24 21:53 KDHN 242153Z 21010KT 10SM CLR 25/12 A3002 RMK AO2 SLP161 T02500117
KCEW - Crestview, Florida, USA
Distance from station: S 66mi, 107km
Updated: Wed, 24-Apr-2019 4:53pm CDT
Clear
Clear
 Wind from SSW
Wind: SSW 9 mph , 15 km/h
Temperature: 73°F , 23°C
Dew Point: 57°F , 14°C
Humidity: 57%
Barometer: 30.01 inHg , 1016.3 hPa
Clouds: Clear
Visibility: 10 miles , 16 km
2019/04/24 21:53 KCEW 242153Z AUTO 20008KT 10SM CLR 23/14 A3001 RMK AO2 SLP158 T02330144 $
 
KEUF - Eufaula, Alabama, USA
Distance from station: ENE 73mi, 118km
Updated: Mon, 04-Mar-2019 12:58pm CST
NOT Current

 
Barometer: 30.10 inHg , 1019.3 hPa
2019/03/04 18:58 KEUF 041858Z AUTO A3010 RMK AO2 RAEMM TSB02B32 SLPNO PWINO FZRANO TSNO $
KJKA - Gulf Shores, Alabama, USA
Distance from station: SSW 132mi, 212km
Updated: Wed, 24-Apr-2019 5:15pm CDT
Mostly cloudy
Mostly cloudy
 Wind from SE
Wind: SE 8 mph , 13 km/h
Temperature: 73°F , 23°C
Dew Point: 68°F , 20°C
Humidity: 83%
Barometer: 29.98 inHg , 1015.2 hPa
Clouds: Mostly cloudy
Visibility: 10 miles , 16 km
Cloud details: Mostly cloudy 1100 ft
2019/04/24 22:15 KJKA 242215Z AUTO 14007KT 110V170 10SM BKN011 23/20 A2998 RMK AO2 T02250200
KLSF - Ft Benning/Colum, Georgia, USA
Distance from station: SNE 89mi, 143km
Updated: Wed, 24-Apr-2019 3:56pm CDT
NOT Current
Clear
Clear
 Wind from WSW
Wind: WSW 8 mph , 13 km/h
Temperature: 82°F , 28°C
Dew Point: 52°F , 11°C
Humidity: 35%
Barometer: 29.95 inHg , 1014.2 hPa
Clouds: Clear
Visibility: 10 miles , 16 km
2019/04/24 20:56 KLSF 242056Z AUTO 24007KT 10SM CLR 28/11 A2995 RMK AO2 SLP146 T02790110 57019 CHINO RWY33 $
 
KMOB - Mobile/Bates, Alabama, USA
Distance from station: SW 125mi, 202km
Updated: Wed, 24-Apr-2019 4:56pm CDT
Overcast
Overcast
 Wind from S
Wind: S 10 mph , 17 km/h
Temperature: 75°F , 24°C
Dew Point: 64°F , 18°C
Humidity: 69%
Barometer: 29.97 inHg , 1014.9 hPa
Clouds: Overcast
Visibility: 10 miles , 16 km
Cloud details: Partly cloudy 3800 ft
Mostly cloudy 5000 ft
Overcast 20000 ft
2019/04/24 21:56 KMOB 242156Z 19009KT 10SM SCT038 BKN050 OVC200 24/18 A2997 RMK AO2 SLP147 T02440178 $
KNMM - Meridian Nas, Mississippi, USA
Distance from station: WNW 151mi, 243km
Updated: Wed, 24-Apr-2019 4:56pm CDT
Mostly cloudy
Mostly cloudy
 Wind from SW
Wind: SW 8 mph , 13 km/h
Temperature: 82°F , 28°C
Heat Index: 82°F , 28°C
Dew Point: 59°F , 15°C
Humidity: 45%
Barometer: 29.91 inHg , 1012.9 hPa
Clouds: Mostly cloudy
Visibility: 10 miles , 16 km
Cloud details: Few Clouds 5500 ft
Few Clouds 14000 ft
Mostly cloudy 30000 ft
2019/04/24 21:56 KNMM 242156Z 22007KT 10SM FEW055 FEW140 BKN300 28/15 A2991 RMK SLP137 T02780150
KQHY - Hurlbert (Ft Walton Bch), Florida, USA
Distance from station: S 94mi, 151km
Updated: Tue, 23-Apr-2019 2:56pm CDT
NOT Current
Clear
Clear
 Wind from S
Wind: S 6 mph , 9 km/h
Temperature: 77°F , 25°C
Dew Point: 52°F , 11°C
Humidity: 42%
Barometer: 30.13 inHg , 1020.3 hPa
Clouds: Clear
Visibility: 10 miles , 16 km
2019/04/23 19:56 KQHY 231956Z AUTO 19005KT 10SM CLR 25/11 A3013 RMK AO2 SLP210 T02470112 $
 
KTCL - Tuscaloosa, Alabama, USA
Distance from station: NNW 129mi, 207km
Updated: Wed, 24-Apr-2019 4:53pm CDT
Clear
Clear
 Wind from S
Wind: S 12 mph , 19 km/h
Temperature: 82°F , 28°C
Dew Point: 54°F , 12°C
Humidity: 37%
Barometer: 29.90 inHg , 1012.5 hPa
Clouds: Clear
Visibility: 10 miles , 16 km
2019/04/24 21:53 KTCL 242153Z 19010KT 10SM CLR 28/12 A2990 RMK AO2 SLP123 T02830117
KECP - Panama City, Florida, USA
Distance from station: SSE 122mi, 196km
Updated: Wed, 24-Apr-2019 4:53pm CDT
Clear
Clear
 Wind from S
Wind: S 6 mph , 9 km/h
Temperature: 73°F , 23°C
Dew Point: 55°F , 13°C
Humidity: 53%
Barometer: 30.00 inHg , 1015.9 hPa
Clouds: Clear
Visibility: 10 miles , 16 km
2019/04/24 21:53 KECP 242153Z 17005KT 10SM CLR 23/13 A3000 RMK AO2 SLP171 T02330128
KCBM - Columbus Afb, Mississippi, USA
Distance from station: NW 175mi, 282km
Updated: Wed, 24-Apr-2019 3:56pm CDT
NOT Current
Clear
Clear
 Wind from S
Wind: S 9 mph , 15 km/h
Temperature: 82°F , 28°C
Dew Point: 52°F , 11°C
Humidity: 35%
Barometer: 29.88 inHg , 1011.9 hPa
Clouds: Clear
Visibility: 10 miles , 16 km
2019/04/24 20:56 KCBM 242056Z AUTO 18008KT 10SM CLR 28/11 A2988 RMK AO2 SLP120 T02810112 57021 $
 
KBHM - Birmingham, Alabama, USA
Distance from station: N 132mi, 212km
Updated: Wed, 24-Apr-2019 4:53pm CDT
Partly cloudy
Partly cloudy
 Wind from SSW
Wind: SSW 16 mph , 26 km/h, Gust: 24 mph , 39 km/h
Temperature: 82°F , 28°C
Dew Point: 48°F , 9°C
Humidity: 30%
Barometer: 29.95 inHg , 1014.2 hPa
Clouds: Partly cloudy
Visibility: 10 miles , 16 km
Cloud details: Few Clouds 15000 ft
Partly cloudy 25000 ft
2019/04/24 21:53 KBHM 242153Z 20014G21KT 10SM FEW150 SCT250 28/09 A2995 RMK AO2 SLP133 T02780089
KAAF - Apalachicola, Florida, USA
Distance from station: SSE 156mi, 250km
Updated: Wed, 24-Apr-2019 4:53pm CDT
Clear
Clear
 Wind from SSE
Wind: SSE 5 mph , 7 km/h
Temperature: 72°F , 22°C
Dew Point: 55°F , 13°C
Humidity: 57%
Barometer: 30.01 inHg , 1016.3 hPa
Clouds: Clear
Visibility: 10 miles , 16 km
2019/04/24 21:53 KAAF 242153Z AUTO 16004KT 10SM CLR 22/13 A3001 RMK AO2 SLP162 T02220133
KATL - Atlanta, Georgia, USA
Distance from station: NE 177mi, 287km
Updated: Wed, 24-Apr-2019 4:52pm CDT
Partly cloudy
Partly cloudy
 Wind from WSW
Wind: WSW 14 mph , 22 km/h
Temperature: 82°F , 28°C
Dew Point: 46°F , 8°C
Humidity: 28%
Barometer: 29.94 inHg , 1013.9 hPa
Clouds: Partly cloudy
Visibility: 10 miles , 16 km
Cloud details: Few Clouds 15000 ft
Partly cloudy 25000 ft
2019/04/24 21:52 KATL 242152Z 24012KT 10SM FEW150 SCT250 28/08 A2994 RMK AO2 SLP131 ACSL DSNT N-NE T02780083
 
KGPT - Gulfport, Mississippi, USA
Distance from station: SW 192mi, 309km
Updated: Wed, 24-Apr-2019 4:53pm CDT
Mostly cloudy
Mostly cloudy
 Wind from S
Wind: S 8 mph , 13 km/h
Temperature: 75°F , 24°C
Dew Point: 66°F , 19°C
Humidity: 74%
Barometer: 29.95 inHg , 1014.2 hPa
Clouds: Mostly cloudy
Visibility: 10 miles , 16 km
Cloud details: Mostly cloudy 4200 ft
2019/04/24 21:53 KGPT 242153Z 17007KT 10SM BKN042 24/19 A2995 RMK AO2 SLP141 T02390194
KNEW - New Orleans/Lake, Louisiana, USA
Distance from station: SW 255mi, 410km
Updated: Wed, 24-Apr-2019 4:53pm CDT
Mostly cloudy
Mostly cloudy
 Wind from S
Wind: S 17 mph , 28 km/h
Temperature: 81°F , 27°C
Heat Index: 83°F , 28°C
Dew Point: 64°F , 18°C
Humidity: 58%
Barometer: 29.94 inHg , 1013.9 hPa
Clouds: Mostly cloudy
Visibility: 10 miles , 16 km
Cloud details: Partly cloudy 3300 ft
Mostly cloudy 4200 ft
Mostly cloudy 5000 ft
2019/04/24 21:53 KNEW 242153Z 17015KT 10SM SCT033 BKN042 BKN050 27/18 A2994 RMK AO2 SLP131 T02670183
KP92 - Salt Point, Louisiana, USA
Distance from station: SW 347mi, 559km
Updated: Mon, 22-Apr-2019 9:53pm CDT
NOT Current

 Wind from ESE
Wind: ESE 6 mph , 9 km/h
Barometer: 30.11 inHg , 1019.6 hPa
2019/04/23 02:53 KP92 230253Z AUTO 12005KT A3011 RMK AO1 SLP197 52003 $